createdAt,value
2023-03-07T00:01:24.945Z,7.60
2023-03-07T00:08:50.554Z,7.60
2023-03-07T00:11:17.460Z,7.60
2023-03-07T00:13:44.505Z,7.60
2023-03-07T00:16:15.027Z,7.60
2023-03-07T00:18:42.570Z,7.60
2023-03-07T00:21:12.323Z,7.60
2023-03-07T00:23:41.765Z,7.60
2023-03-07T00:26:20.775Z,7.60
2023-03-07T00:28:49.411Z,7.60
2023-03-07T00:31:17.254Z,7.50
2023-03-07T00:33:44.373Z,7.60
2023-03-07T00:36:14.688Z,7.60
2023-03-07T00:38:42.396Z,7.50
2023-03-07T00:41:12.445Z,7.50
2023-03-07T00:43:40.205Z,7.50
2023-03-07T00:46:07.699Z,7.40
2023-03-07T00:48:36.668Z,7.40
2023-03-07T00:53:31.939Z,7.10
2023-03-07T00:58:32.083Z,7.30
2023-03-07T01:00:59.103Z,7.30
2023-03-07T01:03:27.318Z,7.20
2023-03-07T01:05:55.696Z,7.20
2023-03-07T01:10:51.036Z,7.20
2023-03-07T01:13:19.439Z,7.10
2023-03-07T01:25:43.525Z,7.00
2023-03-07T01:28:14.048Z,6.90
2023-03-07T01:33:09.958Z,6.80
2023-03-07T01:35:39.849Z,6.80
2023-03-07T01:38:07.029Z,6.80
2023-03-07T01:40:38.594Z,6.70
2023-03-07T01:43:32.256Z,6.80
2023-03-07T01:46:25.206Z,6.70
2023-03-07T01:49:05.584Z,6.70
2023-03-07T01:51:36.421Z,6.70
2023-03-07T01:54:06.390Z,6.70
2023-03-07T01:56:34.761Z,6.70
2023-03-07T02:01:29.222Z,6.70
2023-03-07T02:04:14.683Z,6.80
2023-03-07T02:48:47.734Z,6.80
2023-03-07T02:53:45.922Z,6.80
2023-03-07T02:56:13.076Z,6.80
2023-03-07T02:58:39.915Z,6.80
2023-03-07T03:01:07.284Z,6.80
2023-03-07T03:08:29.406Z,6.90
2023-03-07T03:15:58.295Z,7.00
2023-03-07T03:18:28.569Z,7.00
2023-03-07T03:20:55.454Z,7.00
2023-03-07T03:26:05.161Z,7.00
2023-03-07T03:31:02.034Z,7.00
2023-03-07T03:33:30.421Z,7.00
2023-03-07T03:35:59.273Z,7.00
2023-03-07T03:38:27.010Z,7.00
2023-03-07T03:43:22.867Z,7.00
2023-03-07T03:45:56.736Z,7.00
2023-03-07T03:48:26.040Z,6.90
2023-03-07T03:51:08.882Z,7.10
2023-03-07T03:53:38.245Z,7.00
2023-03-07T03:56:07.055Z,7.10
2023-03-07T03:58:34.778Z,7.10
2023-03-07T04:01:06.377Z,7.10
2023-03-07T04:03:38.439Z,7.10
2023-03-07T04:06:09.054Z,7.10
2023-03-07T04:08:38.206Z,7.10
2023-03-07T04:11:05.966Z,7.10
2023-03-07T04:13:34.307Z,7.10
2023-03-07T04:23:24.853Z,7.30
2023-03-07T04:25:57.277Z,7.30
2023-03-07T04:28:27.045Z,7.40
2023-03-07T04:35:54.344Z,7.40
2023-03-07T04:40:48.534Z,7.30
2023-03-07T04:55:34.211Z,7.30
2023-03-07T05:00:28.787Z,7.10
2023-03-07T05:03:02.289Z,7.30
2023-03-07T05:10:25.336Z,7.30
2023-03-07T05:17:47.879Z,7.30
2023-03-07T05:35:01.997Z,7.30
2023-03-07T05:37:30.330Z,7.30
2023-03-07T06:04:31.826Z,7.40
2023-03-07T06:06:59.864Z,7.40
2023-03-07T06:09:28.157Z,7.40
2023-03-07T06:14:25.726Z,7.30
2023-03-07T06:24:16.363Z,7.40
2023-03-07T06:36:34.226Z,7.50
2023-03-07T06:39:02.241Z,7.40
2023-03-07T06:41:29.242Z,7.40
2023-03-07T06:43:58.764Z,7.50
2023-03-07T06:46:31.500Z,7.50
2023-03-07T06:53:57.842Z,7.50
2023-03-07T06:56:25.806Z,7.50
2023-03-07T06:58:52.681Z,7.50
2023-03-07T07:01:21.826Z,7.50
2023-03-07T07:08:48.648Z,7.60
2023-03-07T07:16:18.241Z,7.60
2023-03-07T07:26:07.896Z,7.70
2023-03-07T07:46:05.682Z,8.00
2023-03-07T07:51:04.401Z,8.10
2023-03-07T07:53:32.047Z,8.10
2023-03-07T08:05:49.117Z,8.20
2023-03-07T08:08:17.712Z,8.30
2023-03-07T08:10:47.249Z,8.30
2023-03-07T08:13:15.942Z,8.30
2023-03-07T08:15:43.351Z,8.40
2023-03-07T08:25:34.292Z,8.40
2023-03-07T08:30:32.440Z,8.50
2023-03-07T08:35:28.328Z,8.50
2023-03-07T08:37:59.825Z,8.60
2023-03-07T08:40:28.848Z,8.60
2023-03-07T08:47:54.796Z,8.70
2023-03-07T08:50:28.217Z,8.80
2023-03-07T08:57:49.885Z,8.90
2023-03-07T09:07:40.009Z,8.90
2023-03-07T09:10:07.431Z,9.00
2023-03-07T09:12:36.097Z,9.00
2023-03-07T09:15:03.018Z,9.10
2023-03-07T09:17:30.426Z,9.10
2023-03-07T09:39:39.580Z,9.70
2023-03-07T09:42:38.013Z,9.70
2023-03-07T09:48:01.563Z,9.70
2023-03-07T09:50:52.731Z,9.70
2023-03-07T09:53:42.273Z,9.80
2023-03-07T09:56:15.761Z,9.80
2023-03-07T09:58:48.756Z,9.80
2023-03-07T10:01:19.948Z,9.90
2023-03-07T10:03:51.740Z,9.90
2023-03-07T10:06:43.193Z,10.00
2023-03-07T10:09:19.585Z,10.10
2023-03-07T10:12:10.018Z,10.10
2023-03-07T10:14:37.056Z,10.10
2023-03-07T10:17:13.533Z,10.20
2023-03-07T10:19:43.832Z,10.20
2023-03-07T10:22:21.900Z,10.30
2023-03-07T10:25:10.915Z,10.30
2023-03-07T10:27:39.132Z,10.30
2023-03-07T10:30:17.797Z,10.30
2023-03-07T10:37:55.169Z,10.40
2023-03-07T10:40:55.603Z,10.40
2023-03-07T10:45:49.918Z,10.40
2023-03-07T10:48:19.718Z,10.40
2023-03-07T10:51:04.457Z,10.30
2023-03-07T10:53:34.892Z,10.30
2023-03-07T10:56:16.612Z,10.30
2023-03-07T10:59:09.601Z,10.30
2023-03-07T11:01:39.236Z,10.20
2023-03-07T11:04:17.765Z,10.30
2023-03-07T11:06:58.943Z,10.20
2023-03-07T11:09:34.282Z,10.20
2023-03-07T11:12:10.165Z,10.20
2023-03-07T11:15:10.327Z,10.20
2023-03-07T11:17:45.430Z,10.30
2023-03-07T11:20:45.633Z,9.70
2023-03-07T11:23:12.450Z,10.30
2023-03-07T11:28:27.548Z,10.40
2023-03-07T11:31:01.803Z,10.50
2023-03-07T11:33:58.713Z,10.50
2023-03-07T11:36:33.430Z,10.60
2023-03-07T11:39:32.353Z,10.60
2023-03-07T11:42:15.772Z,10.70
2023-03-07T11:44:48.162Z,10.70
2023-03-07T11:47:52.188Z,10.80
2023-03-07T11:50:26.560Z,10.90
2023-03-07T11:53:30.243Z,11.00
2023-03-07T12:00:22.378Z,11.10
2023-03-07T12:03:23.502Z,11.20
2023-03-07T12:06:00.791Z,11.20
2023-03-07T12:08:33.827Z,11.20
2023-03-07T12:11:27.222Z,11.20
2023-03-07T12:13:58.834Z,11.20
2023-03-07T12:19:20.353Z,11.20
2023-03-07T12:22:11.874Z,11.20
2023-03-07T12:24:45.315Z,11.10
2023-03-07T12:27:20.039Z,11.10
2023-03-07T12:30:16.895Z,11.10
2023-03-07T12:32:44.205Z,11.00
2023-03-07T12:35:31.975Z,11.00
2023-03-07T12:38:36.723Z,10.90
2023-03-07T12:41:58.721Z,10.90
2023-03-07T12:44:46.202Z,10.80
2023-03-07T12:47:41.781Z,10.70
2023-03-07T12:50:13.118Z,10.60
2023-03-07T12:52:48.192Z,10.70
2023-03-07T12:55:34.663Z,10.70
2023-03-07T12:58:18.087Z,10.70
2023-03-07T13:00:54.658Z,10.70
2023-03-07T13:03:40.722Z,10.70
2023-03-07T13:06:13.841Z,10.70
2023-03-07T13:08:43.281Z,10.70
2023-03-07T13:11:22.729Z,10.70
2023-03-07T13:14:02.231Z,10.60
2023-03-07T13:16:38.082Z,10.60
2023-03-07T13:19:31.164Z,10.60
2023-03-07T13:21:58.618Z,10.60
2023-03-07T13:24:42.950Z,10.60
2023-03-07T13:27:41.104Z,6.80
2023-03-07T13:30:21.602Z,10.50
2023-03-07T13:32:51.584Z,10.40
2023-03-07T13:35:28.265Z,10.50
2023-03-07T13:40:46.721Z,10.40
2023-03-07T13:48:13.303Z,10.50
2023-03-07T13:50:43.175Z,10.40
2023-03-07T13:53:24.987Z,10.40
2023-03-07T13:55:57.757Z,10.40
2023-03-07T13:58:29.151Z,10.40
2023-03-07T14:01:00.442Z,10.40
2023-03-07T14:03:42.470Z,10.40
2023-03-07T14:06:21.754Z,10.30
2023-03-07T14:08:50.230Z,10.30
2023-03-07T14:11:37.751Z,10.40
2023-03-07T14:14:45.618Z,10.30
2023-03-07T14:17:35.622Z,10.30
2023-03-07T14:20:15.678Z,10.30
2023-03-07T14:22:58.366Z,10.30
2023-03-07T14:25:28.080Z,10.30
2023-03-07T14:27:59.504Z,10.30
2023-03-07T14:30:32.588Z,10.30
2023-03-07T14:33:01.223Z,10.30
2023-03-07T14:35:35.154Z,10.30
2023-03-07T14:43:22.730Z,10.20
2023-03-07T14:46:05.277Z,10.30
2023-03-07T14:48:32.092Z,10.30
2023-03-07T14:51:08.901Z,10.40
2023-03-07T14:56:07.987Z,10.20
2023-03-07T14:58:45.599Z,10.20
2023-03-07T15:01:16.246Z,10.30
2023-03-07T15:03:47.653Z,10.20
2023-03-07T15:06:18.072Z,10.20
2023-03-07T15:08:46.903Z,10.20
2023-03-07T15:11:28.847Z,10.20
2023-03-07T15:14:11.582Z,10.10
2023-03-07T15:16:43.596Z,10.20
2023-03-07T15:21:43.975Z,10.20
2023-03-07T15:24:22.836Z,10.10
2023-03-07T15:26:52.294Z,10.10
2023-03-07T15:29:23.194Z,10.10
2023-03-07T15:31:57.555Z,10.10
2023-03-07T15:36:53.497Z,10.00
2023-03-07T15:39:36.813Z,10.00
2023-03-07T15:42:07.994Z,9.90
2023-03-07T15:44:36.542Z,9.90
2023-03-07T15:47:14.578Z,9.90
2023-03-07T15:49:47.628Z,9.90
2023-03-07T15:52:28.556Z,9.90
2023-03-07T15:54:58.395Z,9.80
2023-03-07T15:57:37.178Z,9.80
2023-03-07T16:00:08.853Z,9.80
2023-03-07T16:02:39.686Z,9.90
2023-03-07T16:05:23.023Z,9.80
2023-03-07T16:07:54.596Z,9.80
2023-03-07T16:10:25.520Z,9.80
2023-03-07T16:15:23.117Z,9.80
2023-03-07T16:17:56.323Z,9.90
2023-03-07T16:20:26.154Z,9.80
2023-03-07T16:25:22.389Z,9.90
2023-03-07T16:27:53.871Z,9.90
2023-03-07T16:30:24.895Z,9.90
2023-03-07T16:32:52.289Z,9.90
2023-03-07T16:35:24.457Z,9.80
2023-03-07T16:37:51.857Z,9.80
2023-03-07T16:40:20.309Z,9.80
2023-03-07T16:42:50.378Z,9.80
2023-03-07T16:45:20.168Z,9.90
2023-03-07T16:47:47.884Z,9.80
2023-03-07T16:50:17.233Z,9.80
2023-03-07T16:55:16.292Z,9.80
2023-03-07T16:57:46.238Z,9.80
2023-03-07T17:00:19.276Z,9.80
2023-03-07T17:02:47.365Z,9.80
2023-03-07T17:05:16.734Z,9.70
2023-03-07T17:07:43.746Z,9.70
2023-03-07T17:10:12.180Z,9.70
2023-03-07T17:12:40.237Z,9.80
2023-03-07T17:15:11.072Z,9.70
2023-03-07T17:17:38.006Z,9.70
2023-03-07T17:20:08.782Z,9.70
2023-03-07T17:25:05.661Z,9.70
2023-03-07T17:27:55.958Z,9.80
2023-03-07T17:30:25.359Z,9.70
2023-03-07T17:35:20.724Z,9.60
2023-03-07T17:37:51.102Z,9.70
2023-03-07T17:45:13.950Z,9.70
2023-03-07T17:50:10.702Z,9.70
2023-03-07T17:52:37.700Z,9.70
2023-03-07T17:55:09.613Z,9.70
2023-03-07T17:57:36.971Z,9.70
2023-03-07T18:00:13.199Z,9.70
2023-03-07T18:02:43.684Z,9.70
2023-03-07T18:05:13.546Z,9.70
2023-03-07T18:07:41.588Z,9.70
2023-03-07T18:10:10.308Z,9.70
2023-03-07T18:12:39.245Z,9.70
2023-03-07T18:15:18.074Z,9.70
2023-03-07T18:17:48.800Z,9.70
2023-03-07T18:20:18.321Z,9.70
2023-03-07T18:25:15.680Z,9.70
2023-03-07T18:27:43.212Z,9.80
2023-03-07T18:30:11.877Z,9.80
2023-03-07T18:35:06.595Z,9.80
2023-03-07T18:42:28.100Z,9.70
2023-03-07T18:44:55.057Z,9.70
2023-03-07T18:49:51.241Z,9.70
2023-03-07T19:11:58.512Z,9.70
2023-03-07T19:16:56.469Z,9.80
2023-03-07T19:19:24.302Z,9.80
2023-03-07T19:21:51.780Z,9.80
2023-03-07T19:24:18.887Z,9.80
2023-03-07T19:29:15.981Z,9.80
2023-03-07T19:31:45.856Z,9.80
2023-03-07T19:34:13.579Z,9.80
2023-03-07T19:36:41.703Z,9.80
2023-03-07T19:39:14.859Z,9.80
2023-03-07T19:41:44.928Z,9.80
2023-03-07T19:56:33.737Z,9.80
2023-03-07T19:59:02.356Z,9.80
2023-03-07T20:01:29.701Z,9.80
2023-03-07T20:06:30.010Z,9.80
2023-03-07T20:08:58.008Z,9.80
2023-03-07T20:11:30.222Z,9.80
2023-03-07T20:13:58.968Z,9.80
2023-03-07T20:16:30.216Z,9.60
2023-03-07T20:18:59.558Z,9.80
2023-03-07T20:21:28.336Z,9.80
2023-03-07T20:23:59.560Z,9.70
2023-03-07T20:26:32.038Z,9.70
2023-03-07T20:29:00.437Z,9.80
2023-03-07T20:31:29.145Z,9.80
2023-03-07T20:33:58.563Z,9.70
2023-03-07T20:36:28.915Z,9.70
2023-03-07T20:39:01.315Z,9.70
2023-03-07T20:41:31.291Z,9.70
2023-03-07T20:44:04.167Z,9.80
2023-03-07T20:46:32.480Z,9.80
2023-03-07T20:49:01.171Z,9.80
2023-03-07T20:51:30.971Z,9.70
2023-03-07T20:54:00.681Z,9.70
2023-03-07T20:56:29.575Z,9.70
2023-03-07T20:58:58.421Z,9.70
2023-03-07T21:01:27.639Z,9.70
2023-03-07T21:03:55.173Z,9.70
2023-03-07T21:11:20.761Z,9.70
2023-03-07T21:13:49.419Z,9.70
2023-03-07T21:16:22.213Z,9.70
2023-03-07T21:21:21.902Z,9.70
2023-03-07T21:23:51.153Z,9.70
2023-03-07T21:26:20.184Z,9.70
2023-03-07T21:28:47.884Z,9.70
2023-03-07T21:31:20.829Z,9.60
2023-03-07T21:33:52.817Z,9.70
2023-03-07T21:36:20.448Z,9.60
2023-03-07T21:38:48.466Z,9.70
2023-03-07T21:41:18.802Z,9.70
2023-03-07T21:46:14.430Z,9.60
2023-03-07T21:48:41.931Z,9.70
2023-03-07T21:56:09.351Z,9.60
2023-03-07T22:01:23.323Z,9.60
2023-03-07T22:03:54.196Z,10.10
2023-03-07T22:06:21.112Z,9.60
2023-03-07T22:13:43.330Z,9.60
2023-03-07T22:16:15.674Z,9.60
2023-03-07T22:21:13.981Z,9.50
2023-03-07T22:23:41.523Z,9.60
2023-03-07T22:26:11.235Z,9.60
2023-03-07T22:28:40.593Z,9.60
2023-03-07T22:31:10.597Z,9.60
2023-03-07T22:33:37.897Z,9.60
2023-03-07T22:36:07.562Z,9.60
2023-03-07T22:41:15.625Z,9.60
2023-03-07T22:43:45.681Z,9.60
2023-03-07T22:46:13.552Z,9.60
2023-03-07T22:48:40.809Z,9.60
2023-03-07T22:51:13.648Z,9.60
2023-03-07T22:56:17.495Z,9.60
2023-03-07T23:01:17.977Z,9.60
2023-03-07T23:06:13.183Z,9.60
2023-03-07T23:08:40.655Z,9.60
2023-03-07T23:11:09.121Z,9.60
2023-03-07T23:13:36.041Z,9.60
2023-03-07T23:16:10.402Z,9.60
2023-03-07T23:18:38.228Z,9.60
2023-03-07T23:21:07.120Z,9.50
2023-03-07T23:23:34.317Z,9.50
2023-03-07T23:26:01.508Z,9.60
2023-03-07T23:35:51.457Z,9.50
2023-03-07T23:38:18.725Z,9.50
2023-03-07T23:43:14.485Z,9.50
2023-03-07T23:50:36.299Z,9.40
2023-03-07T23:55:30.651Z,9.50
